sensor_id;sensor_type;location;lat;lon;timestamp;P1;durP1;ratioP1;P2;durP2;ratioP2
2123;SDS011;1068;52.460;13.528;2023-03-01T00:00:03;35.38;;;22.52;;
2123;SDS011;1068;52.460;13.528;2023-03-01T00:02:31;28.65;;;20.58;;
2123;SDS011;1068;52.460;13.528;2023-03-01T00:04:58;31.23;;;19.30;;
2123;SDS011;1068;52.460;13.528;2023-03-01T00:07:24;27.67;;;21.23;;
2123;SDS011;1068;52.460;13.528;2023-03-01T00:09:52;28.77;;;22.05;;
2123;SDS011;1068;52.460;13.528;2023-03-01T00:12:19;31.50;;;21.70;;
2123;SDS011;1068;52.460;13.528;2023-03-01T00:14:45;39.75;;;23.45;;
2123;SDS011;1068;52.460;13.528;2023-03-01T00:17:12;34.90;;;24.23;;
2123;SDS011;1068;52.460;13.528;2023-03-01T00:19:38;36.17;;;26.70;;
2123;SDS011;1068;52.460;13.528;2023-03-01T00:22:05;33.83;;;24.33;;
2123;SDS011;1068;52.460;13.528;2023-03-01T00:24:31;33.97;;;24.90;;
2123;SDS011;1068;52.460;13.528;2023-03-01T00:26:59;30.92;;;22.50;;
2123;SDS011;1068;52.460;13.528;2023-03-01T00:29:26;35.45;;;23.00;;
2123;SDS011;1068;52.460;13.528;2023-03-01T00:31:53;31.63;;;22.38;;
2123;SDS011;1068;52.460;13.528;2023-03-01T00:34:19;40.88;;;22.77;;
2123;SDS011;1068;52.460;13.528;2023-03-01T00:36:47;33.65;;;23.00;;
2123;SDS011;1068;52.460;13.528;2023-03-01T00:39:14;29.95;;;20.48;;
2123;SDS011;1068;52.460;13.528;2023-03-01T00:41:41;30.50;;;22.23;;
2123;SDS011;1068;52.460;13.528;2023-03-01T00:44:09;28.63;;;20.75;;
2123;SDS011;1068;52.460;13.528;2023-03-01T00:46:36;26.15;;;19.05;;
2123;SDS011;1068;52.460;13.528;2023-03-01T00:49:03;27.05;;;20.88;;
2123;SDS011;1068;52.460;13.528;2023-03-01T00:51:30;32.58;;;22.13;;
2123;SDS011;1068;52.460;13.528;2023-03-01T00:53:57;24.83;;;20.90;;
2123;SDS011;1068;52.460;13.528;2023-03-01T00:56:26;24.98;;;20.38;;
2123;SDS011;1068;52.460;13.528;2023-03-01T00:58:53;31.38;;;21.38;;
2123;SDS011;1068;52.460;13.528;2023-03-01T01:01:22;27.92;;;21.10;;
2123;SDS011;1068;52.460;13.528;2023-03-01T01:03:52;29.42;;;21.27;;
2123;SDS011;1068;52.460;13.528;2023-03-01T01:06:21;31.45;;;22.15;;
2123;SDS011;1068;52.460;13.528;2023-03-01T01:08:48;30.17;;;21.20;;
2123;SDS011;1068;52.460;13.528;2023-03-01T01:11:18;29.15;;;21.50;;
2123;SDS011;1068;52.460;13.528;2023-03-01T01:13:46;28.67;;;22.00;;
2123;SDS011;1068;52.460;13.528;2023-03-01T01:16:13;27.88;;;21.35;;
2123;SDS011;1068;52.460;13.528;2023-03-01T01:18:41;28.00;;;20.42;;
2123;SDS011;1068;52.460;13.528;2023-03-01T01:21:09;27.55;;;21.65;;
2123;SDS011;1068;52.460;13.528;2023-03-01T01:23:37;27.25;;;20.75;;
2123;SDS011;1068;52.460;13.528;2023-03-01T01:26:05;33.95;;;23.27;;
2123;SDS011;1068;52.460;13.528;2023-03-01T01:28:32;28.65;;;23.35;;
2123;SDS011;1068;52.460;13.528;2023-03-01T01:30:59;30.92;;;20.92;;
2123;SDS011;1068;52.460;13.528;2023-03-01T01:33:25;25.90;;;19.65;;
2123;SDS011;1068;52.460;13.528;2023-03-01T01:35:53;27.42;;;20.27;;
2123;SDS011;1068;52.460;13.528;2023-03-01T01:38:20;24.42;;;19.60;;
2123;SDS011;1068;52.460;13.528;2023-03-01T01:40:48;27.73;;;21.15;;
2123;SDS011;1068;52.460;13.528;2023-03-01T01:43:19;28.95;;;19.77;;
2123;SDS011;1068;52.460;13.528;2023-03-01T01:45:47;23.70;;;17.90;;
2123;SDS011;1068;52.460;13.528;2023-03-01T01:48:16;26.95;;;18.88;;
2123;SDS011;1068;52.460;13.528;2023-03-01T01:50:46;24.63;;;18.05;;
2123;SDS011;1068;52.460;13.528;2023-03-01T01:53:22;23.65;;;18.00;;
2123;SDS011;1068;52.460;13.528;2023-03-01T01:55:51;27.95;;;19.35;;
2123;SDS011;1068;52.460;13.528;2023-03-01T01:58:22;26.58;;;17.33;;
2123;SDS011;1068;52.460;13.528;2023-03-01T02:00:50;27.23;;;18.90;;
2123;SDS011;1068;52.460;13.528;2023-03-01T02:03:17;23.33;;;19.00;;
2123;SDS011;1068;52.460;13.528;2023-03-01T02:05:50;27.98;;;18.05;;
2123;SDS011;1068;52.460;13.528;2023-03-01T02:08:20;26.77;;;18.15;;
2123;SDS011;1068;52.460;13.528;2023-03-01T02:10:50;21.70;;;15.82;;
2123;SDS011;1068;52.460;13.528;2023-03-01T02:13:18;20.35;;;15.40;;
2123;SDS011;1068;52.460;13.528;2023-03-01T02:15:45;20.02;;;15.05;;
2123;SDS011;1068;52.460;13.528;2023-03-01T02:18:12;21.85;;;15.00;;
2123;SDS011;1068;52.460;13.528;2023-03-01T02:20:44;22.60;;;17.60;;
2123;SDS011;1068;52.460;13.528;2023-03-01T02:23:24;30.35;;;16.77;;
2123;SDS011;1068;52.460;13.528;2023-03-01T02:25:52;20.77;;;16.10;;
2123;SDS011;1068;52.460;13.528;2023-03-01T02:28:26;24.80;;;17.05;;
2123;SDS011;1068;52.460;13.528;2023-03-01T02:30:55;24.63;;;16.63;;
2123;SDS011;1068;52.460;13.528;2023-03-01T02:33:40;26.55;;;17.42;;
2123;SDS011;1068;52.460;13.528;2023-03-01T02:36:09;23.60;;;17.90;;
2123;SDS011;1068;52.460;13.528;2023-03-01T02:38:40;25.15;;;18.42;;
2123;SDS011;1068;52.460;13.528;2023-03-01T02:41:07;26.92;;;18.80;;
2123;SDS011;1068;52.460;13.528;2023-03-01T02:43:37;22.98;;;16.95;;
2123;SDS011;1068;52.460;13.528;2023-03-01T02:46:04;29.23;;;18.80;;
2123;SDS011;1068;52.460;13.528;2023-03-01T02:48:41;24.40;;;18.65;;
2123;SDS011;1068;52.460;13.528;2023-03-01T02:51:11;29.25;;;19.30;;
2123;SDS011;1068;52.460;13.528;2023-03-01T02:53:56;27.40;;;19.38;;
2123;SDS011;1068;52.460;13.528;2023-03-01T02:56:31;28.80;;;18.67;;
2123;SDS011;1068;52.460;13.528;2023-03-01T02:58:59;23.80;;;18.17;;
2123;SDS011;1068;52.460;13.528;2023-03-01T03:01:27;24.63;;;16.98;;
2123;SDS011;1068;52.460;13.528;2023-03-01T03:04:01;26.02;;;18.70;;
2123;SDS011;1068;52.460;13.528;2023-03-01T03:06:29;26.05;;;18.58;;
2123;SDS011;1068;52.460;13.528;2023-03-01T03:08:55;25.98;;;18.05;;
2123;SDS011;1068;52.460;13.528;2023-03-01T03:11:22;20.58;;;16.77;;
2123;SDS011;1068;52.460;13.528;2023-03-01T03:13:49;25.52;;;17.58;;
2123;SDS011;1068;52.460;13.528;2023-03-01T03:16:18;19.13;;;15.75;;
2123;SDS011;1068;52.460;13.528;2023-03-01T03:18:45;21.65;;;15.52;;
2123;SDS011;1068;52.460;13.528;2023-03-01T03:21:11;21.00;;;15.32;;
2123;SDS011;1068;52.460;13.528;2023-03-01T03:23:38;22.10;;;17.20;;
2123;SDS011;1068;52.460;13.528;2023-03-01T03:26:05;23.20;;;15.05;;
2123;SDS011;1068;52.460;13.528;2023-03-01T03:28:32;20.85;;;14.35;;
2123;SDS011;1068;52.460;13.528;2023-03-01T03:31:00;18.02;;;15.20;;
2123;SDS011;1068;52.460;13.528;2023-03-01T03:33:29;20.95;;;15.10;;
2123;SDS011;1068;52.460;13.528;2023-03-01T03:35:56;18.85;;;14.98;;
2123;SDS011;1068;52.460;13.528;2023-03-01T03:38:23;19.33;;;15.20;;
2123;SDS011;1068;52.460;13.528;2023-03-01T03:40:50;18.83;;;15.75;;
2123;SDS011;1068;52.460;13.528;2023-03-01T03:43:18;17.90;;;15.15;;
2123;SDS011;1068;52.460;13.528;2023-03-01T03:45:46;18.85;;;13.80;;
2123;SDS011;1068;52.460;13.528;2023-03-01T03:48:13;18.92;;;14.10;;
2123;SDS011;1068;52.460;13.528;2023-03-01T03:50:46;15.70;;;12.68;;
2123;SDS011;1068;52.460;13.528;2023-03-01T03:53:14;17.85;;;14.02;;
2123;SDS011;1068;52.460;13.528;2023-03-01T03:55:41;19.17;;;15.18;;
2123;SDS011;1068;52.460;13.528;2023-03-01T03:58:09;18.77;;;14.05;;
2123;SDS011;1068;52.460;13.528;2023-03-01T04:00:38;19.17;;;13.90;;
2123;SDS011;1068;52.460;13.528;2023-03-01T04:03:06;18.50;;;14.35;;
2123;SDS011;1068;52.460;13.528;2023-03-01T04:05:34;17.15;;;14.18;;
2123;SDS011;1068;52.460;13.528;2023-03-01T04:08:02;20.23;;;14.45;;
2123;SDS011;1068;52.460;13.528;2023-03-01T04:10:32;24.33;;;15.88;;
2123;SDS011;1068;52.460;13.528;2023-03-01T04:13:00;16.13;;;13.23;;
2123;SDS011;1068;52.460;13.528;2023-03-01T04:15:26;18.90;;;14.35;;
2123;SDS011;1068;52.460;13.528;2023-03-01T04:17:53;21.88;;;15.85;;
2123;SDS011;1068;52.460;13.528;2023-03-01T04:20:22;17.75;;;14.13;;
2123;SDS011;1068;52.460;13.528;2023-03-01T04:22:50;16.65;;;13.18;;
2123;SDS011;1068;52.460;13.528;2023-03-01T04:25:19;22.17;;;13.40;;
2123;SDS011;1068;52.460;13.528;2023-03-01T04:27:46;14.70;;;13.10;;
2123;SDS011;1068;52.460;13.528;2023-03-01T04:30:13;16.40;;;13.30;;
2123;SDS011;1068;52.460;13.528;2023-03-01T04:32:39;18.45;;;13.90;;
2123;SDS011;1068;52.460;13.528;2023-03-01T04:35:06;16.95;;;12.55;;
2123;SDS011;1068;52.460;13.528;2023-03-01T04:37:33;17.85;;;12.63;;
2123;SDS011;1068;52.460;13.528;2023-03-01T04:40:00;17.60;;;14.43;;
2123;SDS011;1068;52.460;13.528;2023-03-01T04:42:38;17.35;;;14.13;;
2123;SDS011;1068;52.460;13.528;2023-03-01T04:45:05;17.30;;;12.82;;
2123;SDS011;1068;52.460;13.528;2023-03-01T04:47:37;14.32;;;12.82;;
2123;SDS011;1068;52.460;13.528;2023-03-01T04:50:05;20.60;;;14.20;;
2123;SDS011;1068;52.460;13.528;2023-03-01T04:52:32;23.42;;;15.55;;
2123;SDS011;1068;52.460;13.528;2023-03-01T04:54:59;20.27;;;13.65;;
2123;SDS011;1068;52.460;13.528;2023-03-01T04:57:25;16.58;;;13.25;;
2123;SDS011;1068;52.460;13.528;2023-03-01T04:59:53;17.38;;;12.60;;
2123;SDS011;1068;52.460;13.528;2023-03-01T05:02:19;15.23;;;11.10;;
2123;SDS011;1068;52.460;13.528;2023-03-01T05:04:46;16.98;;;13.05;;
2123;SDS011;1068;52.460;13.528;2023-03-01T05:07:12;19.17;;;15.43;;
2123;SDS011;1068;52.460;13.528;2023-03-01T05:09:44;16.40;;;13.00;;
2123;SDS011;1068;52.460;13.528;2023-03-01T05:12:11;20.13;;;13.70;;
2123;SDS011;1068;52.460;13.528;2023-03-01T05:14:38;19.73;;;14.80;;
2123;SDS011;1068;52.460;13.528;2023-03-01T05:17:06;21.15;;;14.38;;
2123;SDS011;1068;52.460;13.528;2023-03-01T05:19:33;20.08;;;14.15;;
2123;SDS011;1068;52.460;13.528;2023-03-01T05:21:59;20.48;;;14.88;;
2123;SDS011;1068;52.460;13.528;2023-03-01T05:24:30;21.98;;;15.88;;
2123;SDS011;1068;52.460;13.528;2023-03-01T05:26:57;17.35;;;12.40;;
2123;SDS011;1068;52.460;13.528;2023-03-01T05:29:25;18.45;;;14.75;;
2123;SDS011;1068;52.460;13.528;2023-03-01T05:31:53;25.05;;;17.00;;
2123;SDS011;1068;52.460;13.528;2023-03-01T05:34:24;21.42;;;14.25;;
2123;SDS011;1068;52.460;13.528;2023-03-01T05:36:51;21.05;;;14.02;;
2123;SDS011;1068;52.460;13.528;2023-03-01T05:39:19;21.67;;;14.20;;
2123;SDS011;1068;52.460;13.528;2023-03-01T05:41:47;22.30;;;14.82;;
2123;SDS011;1068;52.460;13.528;2023-03-01T05:44:14;20.77;;;15.63;;
2123;SDS011;1068;52.460;13.528;2023-03-01T05:46:40;19.48;;;14.32;;
2123;SDS011;1068;52.460;13.528;2023-03-01T05:49:07;21.10;;;14.20;;
2123;SDS011;1068;52.460;13.528;2023-03-01T05:51:35;21.33;;;14.00;;
2123;SDS011;1068;52.460;13.528;2023-03-01T05:54:01;16.08;;;12.68;;
2123;SDS011;1068;52.460;13.528;2023-03-01T05:56:31;20.00;;;13.98;;
2123;SDS011;1068;52.460;13.528;2023-03-01T05:58:58;21.75;;;13.38;;
2123;SDS011;1068;52.460;13.528;2023-03-01T06:01:24;19.58;;;13.38;;
2123;SDS011;1068;52.460;13.528;2023-03-01T06:03:51;17.30;;;13.05;;
2123;SDS011;1068;52.460;13.528;2023-03-01T06:06:17;14.73;;;11.45;;
2123;SDS011;1068;52.460;13.528;2023-03-01T06:08:45;18.15;;;13.43;;
2123;SDS011;1068;52.460;13.528;2023-03-01T06:11:12;19.83;;;14.43;;
2123;SDS011;1068;52.460;13.528;2023-03-01T06:13:38;19.05;;;14.80;;
2123;SDS011;1068;52.460;13.528;2023-03-01T06:16:05;18.75;;;14.13;;
2123;SDS011;1068;52.460;13.528;2023-03-01T06:18:32;15.73;;;12.75;;
2123;SDS011;1068;52.460;13.528;2023-03-01T06:20:59;18.67;;;14.48;;
2123;SDS011;1068;52.460;13.528;2023-03-01T06:23:25;16.42;;;13.95;;
2123;SDS011;1068;52.460;13.528;2023-03-01T06:25:53;17.05;;;14.55;;
2123;SDS011;1068;52.460;13.528;2023-03-01T06:28:20;21.08;;;13.40;;
2123;SDS011;1068;52.460;13.528;2023-03-01T06:30:47;21.60;;;14.38;;
2123;SDS011;1068;52.460;13.528;2023-03-01T06:33:13;19.02;;;13.90;;
2123;SDS011;1068;52.460;13.528;2023-03-01T06:35:40;21.30;;;13.95;;
2123;SDS011;1068;52.460;13.528;2023-03-01T06:38:06;19.98;;;14.50;;
2123;SDS011;1068;52.460;13.528;2023-03-01T06:40:33;22.67;;;16.02;;
2123;SDS011;1068;52.460;13.528;2023-03-01T06:43:02;16.63;;;14.43;;
2123;SDS011;1068;52.460;13.528;2023-03-01T06:45:28;23.83;;;14.38;;
2123;SDS011;1068;52.460;13.528;2023-03-01T06:48:01;19.77;;;15.00;;
2123;SDS011;1068;52.460;13.528;2023-03-01T06:50:29;19.55;;;14.93;;
2123;SDS011;1068;52.460;13.528;2023-03-01T06:52:56;20.65;;;14.50;;
2123;SDS011;1068;52.460;13.528;2023-03-01T06:55:23;21.60;;;15.13;;
2123;SDS011;1068;52.460;13.528;2023-03-01T06:57:53;19.35;;;14.00;;
2123;SDS011;1068;52.460;13.528;2023-03-01T07:00:22;19.92;;;15.20;;
2123;SDS011;1068;52.460;13.528;2023-03-01T07:02:49;19.38;;;15.30;;
2123;SDS011;1068;52.460;13.528;2023-03-01T07:05:16;22.13;;;15.43;;
2123;SDS011;1068;52.460;13.528;2023-03-01T07:07:42;26.58;;;16.73;;
2123;SDS011;1068;52.460;13.528;2023-03-01T07:10:09;33.95;;;19.65;;
2123;SDS011;1068;52.460;13.528;2023-03-01T07:12:36;27.17;;;18.52;;
2123;SDS011;1068;52.460;13.528;2023-03-01T07:15:03;22.02;;;17.88;;
2123;SDS011;1068;52.460;13.528;2023-03-01T07:17:32;25.50;;;18.17;;
2123;SDS011;1068;52.460;13.528;2023-03-01T07:19:58;23.55;;;16.35;;
2123;SDS011;1068;52.460;13.528;2023-03-01T07:22:25;22.77;;;16.45;;
2123;SDS011;1068;52.460;13.528;2023-03-01T07:24:51;25.90;;;15.68;;
2123;SDS011;1068;52.460;13.528;2023-03-01T07:27:18;25.73;;;16.58;;
2123;SDS011;1068;52.460;13.528;2023-03-01T07:29:44;28.10;;;16.85;;
2123;SDS011;1068;52.460;13.528;2023-03-01T07:32:11;24.20;;;17.45;;
2123;SDS011;1068;52.460;13.528;2023-03-01T07:34:38;25.50;;;17.02;;
2123;SDS011;1068;52.460;13.528;2023-03-01T07:37:05;22.85;;;16.98;;
2123;SDS011;1068;52.460;13.528;2023-03-01T07:39:31;25.17;;;17.02;;
2123;SDS011;1068;52.460;13.528;2023-03-01T07:41:58;22.92;;;16.65;;
2123;SDS011;1068;52.460;13.528;2023-03-01T07:44:24;18.02;;;15.15;;
2123;SDS011;1068;52.460;13.528;2023-03-01T07:46:51;20.23;;;16.70;;
2123;SDS011;1068;52.460;13.528;2023-03-01T07:49:21;23.60;;;16.48;;
2123;SDS011;1068;52.460;13.528;2023-03-01T07:51:49;18.13;;;15.82;;
2123;SDS011;1068;52.460;13.528;2023-03-01T07:54:15;22.73;;;15.82;;
2123;SDS011;1068;52.460;13.528;2023-03-01T07:56:43;18.38;;;15.38;;
2123;SDS011;1068;52.460;13.528;2023-03-01T07:59:09;17.45;;;15.07;;
2123;SDS011;1068;52.460;13.528;2023-03-01T08:01:36;18.67;;;14.68;;
2123;SDS011;1068;52.460;13.528;2023-03-01T08:04:02;19.55;;;14.25;;
2123;SDS011;1068;52.460;13.528;2023-03-01T08:06:31;18.83;;;14.38;;
2123;SDS011;1068;52.460;13.528;2023-03-01T08:09:01;17.35;;;14.55;;
2123;SDS011;1068;52.460;13.528;2023-03-01T08:11:27;21.25;;;15.18;;
2123;SDS011;1068;52.460;13.528;2023-03-01T08:13:54;17.85;;;13.55;;
2123;SDS011;1068;52.460;13.528;2023-03-01T08:16:21;16.40;;;13.00;;
2123;SDS011;1068;52.460;13.528;2023-03-01T08:18:48;16.92;;;13.57;;
2123;SDS011;1068;52.460;13.528;2023-03-01T08:21:14;22.00;;;15.25;;
2123;SDS011;1068;52.460;13.528;2023-03-01T08:23:42;18.77;;;14.95;;
2123;SDS011;1068;52.460;13.528;2023-03-01T08:26:12;13.98;;;11.45;;
2123;SDS011;1068;52.460;13.528;2023-03-01T08:28:40;13.82;;;12.38;;
2123;SDS011;1068;52.460;13.528;2023-03-01T08:31:13;16.20;;;13.35;;
2123;SDS011;1068;52.460;13.528;2023-03-01T08:33:41;14.55;;;12.40;;
2123;SDS011;1068;52.460;13.528;2023-03-01T08:36:07;17.55;;;12.25;;
2123;SDS011;1068;52.460;13.528;2023-03-01T08:38:34;13.90;;;12.45;;
2123;SDS011;1068;52.460;13.528;2023-03-01T08:41:01;14.88;;;11.98;;
2123;SDS011;1068;52.460;13.528;2023-03-01T08:43:29;13.40;;;11.70;;
2123;SDS011;1068;52.460;13.528;2023-03-01T08:45:56;16.60;;;12.57;;
2123;SDS011;1068;52.460;13.528;2023-03-01T08:48:23;15.50;;;12.77;;
2123;SDS011;1068;52.460;13.528;2023-03-01T08:50:49;13.88;;;11.18;;
2123;SDS011;1068;52.460;13.528;2023-03-01T08:53:16;16.08;;;12.65;;
2123;SDS011;1068;52.460;13.528;2023-03-01T08:55:42;18.95;;;9.93;;
2123;SDS011;1068;52.460;13.528;2023-03-01T08:58:09;10.82;;;8.48;;
2123;SDS011;1068;52.460;13.528;2023-03-01T09:00:37;8.63;;;7.72;;
2123;SDS011;1068;52.460;13.528;2023-03-01T09:03:05;7.82;;;7.05;;
2123;SDS011;1068;52.460;13.528;2023-03-01T09:05:31;7.90;;;6.03;;
2123;SDS011;1068;52.460;13.528;2023-03-01T09:07:58;7.30;;;6.60;;
2123;SDS011;1068;52.460;13.528;2023-03-01T09:10:26;13.48;;;7.70;;
2123;SDS011;1068;52.460;13.528;2023-03-01T09:12:53;10.00;;;7.57;;
2123;SDS011;1068;52.460;13.528;2023-03-01T09:15:20;9.52;;;7.85;;
2123;SDS011;1068;52.460;13.528;2023-03-01T09:17:48;11.82;;;8.57;;
2123;SDS011;1068;52.460;13.528;2023-03-01T09:20:15;8.48;;;7.32;;
2123;SDS011;1068;52.460;13.528;2023-03-01T09:22:41;27.33;;;7.70;;
2123;SDS011;1068;52.460;13.528;2023-03-01T09:25:08;7.00;;;6.30;;
2123;SDS011;1068;52.460;13.528;2023-03-01T09:27:35;6.80;;;5.63;;
2123;SDS011;1068;52.460;13.528;2023-03-01T09:30:01;5.68;;;5.07;;
2123;SDS011;1068;52.460;13.528;2023-03-01T09:32:29;6.28;;;5.25;;
2123;SDS011;1068;52.460;13.528;2023-03-01T09:34:57;12.20;;;6.10;;
2123;SDS011;1068;52.460;13.528;2023-03-01T09:37:29;6.45;;;5.30;;
2123;SDS011;1068;52.460;13.528;2023-03-01T09:39:57;6.35;;;5.45;;
2123;SDS011;1068;52.460;13.528;2023-03-01T09:42:23;7.25;;;4.35;;
2123;SDS011;1068;52.460;13.528;2023-03-01T09:44:51;5.13;;;4.63;;
2123;SDS011;1068;52.460;13.528;2023-03-01T09:47:23;5.70;;;4.63;;
2123;SDS011;1068;52.460;13.528;2023-03-01T09:49:55;8.75;;;4.93;;
2123;SDS011;1068;52.460;13.528;2023-03-01T09:52:29;15.93;;;6.00;;
2123;SDS011;1068;52.460;13.528;2023-03-01T09:55:05;5.35;;;3.90;;
2123;SDS011;1068;52.460;13.528;2023-03-01T09:57:36;5.88;;;4.00;;
2123;SDS011;1068;52.460;13.528;2023-03-01T10:00:15;8.57;;;4.25;;
2123;SDS011;1068;52.460;13.528;2023-03-01T10:02:55;13.18;;;4.05;;
2123;SDS011;1068;52.460;13.528;2023-03-01T10:05:29;7.93;;;4.47;;
2123;SDS011;1068;52.460;13.528;2023-03-01T10:08:06;5.00;;;4.43;;
2123;SDS011;1068;52.460;13.528;2023-03-01T10:11:00;3.40;;;3.07;;
2123;SDS011;1068;52.460;13.528;2023-03-01T10:13:29;6.72;;;3.75;;
2123;SDS011;1068;52.460;13.528;2023-03-01T10:16:03;3.25;;;2.92;;
2123;SDS011;1068;52.460;13.528;2023-03-01T10:18:37;6.38;;;3.20;;
2123;SDS011;1068;52.460;13.528;2023-03-01T10:21:09;4.57;;;3.08;;
2123;SDS011;1068;52.460;13.528;2023-03-01T10:23:40;7.55;;;3.70;;
2123;SDS011;1068;52.460;13.528;2023-03-01T10:26:09;5.23;;;4.20;;
2123;SDS011;1068;52.460;13.528;2023-03-01T10:31:32;4.70;;;3.67;;
2123;SDS011;1068;52.460;13.528;2023-03-01T10:34:07;3.97;;;3.60;;
2123;SDS011;1068;52.460;13.528;2023-03-01T10:36:37;4.70;;;4.30;;
2123;SDS011;1068;52.460;13.528;2023-03-01T10:39:10;4.97;;;4.43;;
2123;SDS011;1068;52.460;13.528;2023-03-01T10:41:44;7.40;;;4.73;;
2123;SDS011;1068;52.460;13.528;2023-03-01T10:44:36;5.10;;;4.30;;
2123;SDS011;1068;52.460;13.528;2023-03-01T10:47:09;6.25;;;4.50;;
2123;SDS011;1068;52.460;13.528;2023-03-01T10:49:46;5.60;;;4.57;;
2123;SDS011;1068;52.460;13.528;2023-03-01T10:52:24;5.60;;;4.53;;
2123;SDS011;1068;52.460;13.528;2023-03-01T10:54:54;4.60;;;3.77;;
2123;SDS011;1068;52.460;13.528;2023-03-01T10:57:29;4.27;;;3.83;;
2123;SDS011;1068;52.460;13.528;2023-03-01T11:00:00;4.90;;;4.30;;
2123;SDS011;1068;52.460;13.528;2023-03-01T11:02:41;4.68;;;4.03;;
2123;SDS011;1068;52.460;13.528;2023-03-01T11:05:15;6.47;;;4.07;;
2123;SDS011;1068;52.460;13.528;2023-03-01T11:07:48;4.20;;;3.70;;
2123;SDS011;1068;52.460;13.528;2023-03-01T11:10:16;4.33;;;3.93;;
2123;SDS011;1068;52.460;13.528;2023-03-01T11:12:44;4.73;;;3.70;;
2123;SDS011;1068;52.460;13.528;2023-03-01T11:15:18;4.60;;;4.10;;
2123;SDS011;1068;52.460;13.528;2023-03-01T11:17:48;3.57;;;3.23;;
2123;SDS011;1068;52.460;13.528;2023-03-01T11:20:16;4.70;;;3.20;;
2123;SDS011;1068;52.460;13.528;2023-03-01T11:22:51;5.00;;;3.73;;
2123;SDS011;1068;52.460;13.528;2023-03-01T11:25:20;3.93;;;3.10;;
2123;SDS011;1068;52.460;13.528;2023-03-01T11:27:50;4.10;;;3.60;;
2123;SDS011;1068;52.460;13.528;2023-03-01T11:30:20;8.70;;;4.03;;
2123;SDS011;1068;52.460;13.528;2023-03-01T11:32:50;3.73;;;3.40;;
2123;SDS011;1068;52.460;13.528;2023-03-01T11:35:24;3.10;;;2.80;;
2123;SDS011;1068;52.460;13.528;2023-03-01T11:37:58;4.50;;;3.80;;
2123;SDS011;1068;52.460;13.528;2023-03-01T11:40:29;6.00;;;4.57;;
2123;SDS011;1068;52.460;13.528;2023-03-01T11:43:03;4.80;;;3.80;;
2123;SDS011;1068;52.460;13.528;2023-03-01T11:45:42;4.53;;;3.77;;
2123;SDS011;1068;52.460;13.528;2023-03-01T11:51:13;4.13;;;3.73;;
2123;SDS011;1068;52.460;13.528;2023-03-01T11:53:53;11.77;;;4.30;;
2123;SDS011;1068;52.460;13.528;2023-03-01T11:56:28;4.33;;;3.93;;
2123;SDS011;1068;52.460;13.528;2023-03-01T11:59:06;3.93;;;3.57;;
2123;SDS011;1068;52.460;13.528;2023-03-01T12:02:13;4.43;;;4.10;;
2123;SDS011;1068;52.460;13.528;2023-03-01T12:04:58;10.47;;;4.53;;
2123;SDS011;1068;52.460;13.528;2023-03-01T12:07:36;4.40;;;3.30;;
2123;SDS011;1068;52.460;13.528;2023-03-01T12:13:15;6.97;;;3.50;;
2123;SDS011;1068;52.460;13.528;2023-03-01T12:15:58;3.40;;;2.70;;
2123;SDS011;1068;52.460;13.528;2023-03-01T12:18:44;4.13;;;3.70;;
2123;SDS011;1068;52.460;13.528;2023-03-01T12:21:30;5.10;;;3.00;;
2123;SDS011;1068;52.460;13.528;2023-03-01T12:24:10;3.20;;;2.90;;
2123;SDS011;1068;52.460;13.528;2023-03-01T12:27:19;3.40;;;3.10;;
2123;SDS011;1068;52.460;13.528;2023-03-01T12:30:05;4.07;;;3.30;;
2123;SDS011;1068;52.460;13.528;2023-03-01T12:32:49;3.60;;;3.00;;
2123;SDS011;1068;52.460;13.528;2023-03-01T12:35:28;3.30;;;3.00;;
2123;SDS011;1068;52.460;13.528;2023-03-01T12:38:11;2.70;;;2.50;;
2123;SDS011;1068;52.460;13.528;2023-03-01T12:40:59;4.07;;;2.60;;
2123;SDS011;1068;52.460;13.528;2023-03-01T12:43:43;2.77;;;2.50;;
2123;SDS011;1068;52.460;13.528;2023-03-01T12:46:21;2.90;;;2.70;;
2123;SDS011;1068;52.460;13.528;2023-03-01T12:48:59;2.50;;;2.23;;
2123;SDS011;1068;52.460;13.528;2023-03-01T12:51:35;3.47;;;2.17;;
2123;SDS011;1068;52.460;13.528;2023-03-01T12:54:05;3.83;;;2.43;;
2123;SDS011;1068;52.460;13.528;2023-03-01T12:56:38;2.50;;;2.30;;
2123;SDS011;1068;52.460;13.528;2023-03-01T12:59:09;2.47;;;2.27;;
2123;SDS011;1068;52.460;13.528;2023-03-01T13:01:42;1.70;;;1.60;;
2123;SDS011;1068;52.460;13.528;2023-03-01T13:04:19;2.30;;;1.87;;
2123;SDS011;1068;52.460;13.528;2023-03-01T13:06:58;2.60;;;2.03;;
2123;SDS011;1068;52.460;13.528;2023-03-01T13:09:35;3.60;;;2.20;;
2123;SDS011;1068;52.460;13.528;2023-03-01T13:18:04;2.70;;;1.50;;
2123;SDS011;1068;52.460;13.528;2023-03-01T13:20:58;2.40;;;1.77;;
2123;SDS011;1068;52.460;13.528;2023-03-01T13:23:27;4.70;;;2.80;;
2123;SDS011;1068;52.460;13.528;2023-03-01T13:25:59;2.00;;;1.83;;
2123;SDS011;1068;52.460;13.528;2023-03-01T13:28:38;3.47;;;2.10;;
2123;SDS011;1068;52.460;13.528;2023-03-01T13:31:07;2.23;;;1.97;;
2123;SDS011;1068;52.460;13.528;2023-03-01T13:33:54;2.30;;;2.10;;
2123;SDS011;1068;52.460;13.528;2023-03-01T13:39:26;2.13;;;1.93;;
2123;SDS011;1068;52.460;13.528;2023-03-01T13:41:56;2.77;;;2.57;;
2123;SDS011;1068;52.460;13.528;2023-03-01T13:44:25;5.03;;;2.60;;
2123;SDS011;1068;52.460;13.528;2023-03-01T13:46:56;2.00;;;1.80;;
2123;SDS011;1068;52.460;13.528;2023-03-01T13:49:26;1.87;;;1.70;;
2123;SDS011;1068;52.460;13.528;2023-03-01T13:51:55;4.07;;;2.27;;
2123;SDS011;1068;52.460;13.528;2023-03-01T13:54:24;2.33;;;2.13;;
2123;SDS011;1068;52.460;13.528;2023-03-01T13:56:55;4.07;;;2.23;;
2123;SDS011;1068;52.460;13.528;2023-03-01T13:59:23;2.80;;;1.90;;
2123;SDS011;1068;52.460;13.528;2023-03-01T14:01:51;1.93;;;1.83;;
2123;SDS011;1068;52.460;13.528;2023-03-01T14:04:19;4.80;;;2.27;;
2123;SDS011;1068;52.460;13.528;2023-03-01T14:06:49;2.40;;;2.10;;
2123;SDS011;1068;52.460;13.528;2023-03-01T14:09:16;2.37;;;1.60;;
2123;SDS011;1068;52.460;13.528;2023-03-01T14:14:48;1.87;;;1.63;;
2123;SDS011;1068;52.460;13.528;2023-03-01T14:17:23;3.20;;;2.10;;
2123;SDS011;1068;52.460;13.528;2023-03-01T14:20:14;2.30;;;2.10;;
2123;SDS011;1068;52.460;13.528;2023-03-01T14:22:45;2.13;;;1.70;;
2123;SDS011;1068;52.460;13.528;2023-03-01T14:25:17;3.87;;;2.20;;
2123;SDS011;1068;52.460;13.528;2023-03-01T14:27:50;2.80;;;2.20;;
2123;SDS011;1068;52.460;13.528;2023-03-01T14:30:21;4.80;;;2.80;;
2123;SDS011;1068;52.460;13.528;2023-03-01T14:32:53;4.13;;;2.30;;
2123;SDS011;1068;52.460;13.528;2023-03-01T14:35:23;2.63;;;2.43;;
2123;SDS011;1068;52.460;13.528;2023-03-01T14:37:53;1.77;;;1.67;;
2123;SDS011;1068;52.460;13.528;2023-03-01T14:40:21;2.27;;;1.90;;
2123;SDS011;1068;52.460;13.528;2023-03-01T14:42:49;1.93;;;1.83;;
2123;SDS011;1068;52.460;13.528;2023-03-01T14:45:17;2.40;;;2.20;;
2123;SDS011;1068;52.460;13.528;2023-03-01T14:47:44;2.33;;;2.13;;
2123;SDS011;1068;52.460;13.528;2023-03-01T14:50:15;2.97;;;1.97;;
2123;SDS011;1068;52.460;13.528;2023-03-01T14:52:48;2.87;;;2.00;;
2123;SDS011;1068;52.460;13.528;2023-03-01T14:55:18;2.50;;;2.10;;
2123;SDS011;1068;52.460;13.528;2023-03-01T14:57:47;2.90;;;2.43;;
2123;SDS011;1068;52.460;13.528;2023-03-01T15:00:17;2.67;;;2.27;;
2123;SDS011;1068;52.460;13.528;2023-03-01T15:02:47;3.90;;;2.40;;
2123;SDS011;1068;52.460;13.528;2023-03-01T15:05:14;3.40;;;3.20;;
2123;SDS011;1068;52.460;13.528;2023-03-01T15:07:43;5.93;;;2.20;;
2123;SDS011;1068;52.460;13.528;2023-03-01T15:10:16;5.23;;;2.47;;
2123;SDS011;1068;52.460;13.528;2023-03-01T15:12:46;3.30;;;3.00;;
2123;SDS011;1068;52.460;13.528;2023-03-01T15:18:06;2.57;;;2.37;;
2123;SDS011;1068;52.460;13.528;2023-03-01T15:20:41;7.37;;;3.00;;
2123;SDS011;1068;52.460;13.528;2023-03-01T15:23:16;2.50;;;2.30;;
2123;SDS011;1068;52.460;13.528;2023-03-01T15:25:47;9.87;;;3.00;;